createdAt,value
2022-09-29T00:00:00.149Z,21.4
2022-09-29T00:05:00.091Z,21.5
2022-09-29T00:10:00.122Z,21.5
2022-09-29T00:15:00.091Z,21.5
2022-09-29T00:20:00.149Z,21.6
2022-09-29T00:25:00.119Z,21.7
2022-09-29T00:30:00.155Z,21.7
2022-09-29T00:35:00.100Z,21.8
2022-09-29T00:40:00.194Z,21.8
2022-09-29T00:45:00.096Z,21.8
2022-09-29T00:50:00.251Z,21.8
2022-09-29T00:55:00.113Z,21.9
2022-09-29T01:00:01.496Z,21.9
2022-09-29T01:05:00.100Z,21.9
2022-09-29T01:10:00.184Z,22.0
2022-09-29T01:15:01.046Z,22.0
2022-09-29T01:20:04.184Z,22.0
2022-09-29T01:25:02.215Z,22.0
2022-09-29T01:30:00.165Z,22.0
2022-09-29T01:35:00.127Z,22.0
2022-09-29T01:40:01.226Z,22.0
2022-09-29T01:45:00.113Z,22.0
2022-09-29T01:50:00.121Z,22.0
2022-09-29T01:55:00.117Z,22.0
2022-09-29T02:00:00.155Z,22.0
2022-09-29T02:05:00.082Z,22.0
2022-09-29T02:10:00.136Z,22.0
2022-09-29T02:15:00.105Z,22.0
2022-09-29T02:20:00.142Z,22.0
2022-09-29T02:25:00.099Z,22.0
2022-09-29T02:30:00.136Z,22.0
2022-09-29T02:35:00.104Z,22.0
2022-09-29T02:40:00.153Z,22.0
2022-09-29T02:45:00.124Z,22.0
2022-09-29T02:50:00.175Z,22.0
2022-09-29T02:55:00.104Z,22.0
2022-09-29T03:00:00.198Z,22.0
2022-09-29T03:05:00.093Z,22.0
2022-09-29T03:10:00.166Z,22.0
2022-09-29T03:15:00.142Z,22.0
2022-09-29T03:20:00.174Z,22.0
2022-09-29T03:25:00.094Z,21.9
2022-09-29T03:30:00.155Z,21.9
2022-09-29T03:35:00.106Z,21.9
2022-09-29T03:40:00.157Z,21.9
2022-09-29T03:45:00.126Z,21.9
2022-09-29T03:50:00.145Z,21.9
2022-09-29T03:55:00.096Z,21.9
2022-09-29T04:05:01.204Z,21.9
2022-09-29T04:10:00.149Z,21.9
2022-09-29T04:15:00.138Z,21.9
2022-09-29T04:20:00.154Z,21.9
2022-09-29T04:25:00.091Z,21.9
2022-09-29T04:30:00.143Z,21.9
2022-09-29T04:35:00.101Z,21.9
2022-09-29T04:40:00.141Z,21.9
2022-09-29T04:45:00.113Z,21.9
2022-09-29T04:50:01.707Z,21.9
2022-09-29T04:55:00.086Z,21.9
2022-09-29T05:00:00.168Z,21.9
2022-09-29T05:05:00.113Z,21.9
2022-09-29T05:10:00.120Z,21.9
2022-09-29T05:15:00.106Z,21.9
2022-09-29T05:20:00.182Z,21.9
2022-09-29T05:25:00.093Z,21.9
2022-09-29T05:30:00.150Z,21.9
2022-09-29T05:35:00.108Z,21.9
2022-09-29T05:40:00.151Z,21.9
2022-09-29T05:45:00.136Z,21.9
2022-09-29T05:50:00.171Z,21.9
2022-09-29T05:55:00.104Z,21.9
2022-09-29T06:00:00.190Z,21.9
2022-09-29T06:05:00.094Z,21.9
2022-09-29T06:10:00.210Z,21.9
2022-09-29T06:15:00.142Z,21.9
2022-09-29T06:20:02.526Z,21.9
2022-09-29T06:25:00.115Z,21.9
2022-09-29T06:30:00.155Z,21.9
2022-09-29T06:35:00.103Z,21.9
2022-09-29T06:40:00.180Z,21.9
2022-09-29T06:45:00.128Z,21.9
2022-09-29T06:50:10.526Z,21.9
2022-09-29T06:55:00.094Z,21.9
2022-09-29T07:00:00.328Z,21.9
2022-09-29T07:05:00.083Z,21.9
2022-09-29T07:10:00.157Z,21.9
2022-09-29T07:15:00.130Z,21.9
2022-09-29T07:20:00.178Z,21.9
2022-09-29T07:25:00.111Z,21.9
2022-09-29T07:30:03.861Z,21.9
2022-09-29T07:35:00.162Z,21.9
2022-09-29T07:40:00.145Z,21.9
2022-09-29T07:45:00.127Z,21.9
2022-09-29T07:50:01.799Z,21.9
2022-09-29T07:55:00.119Z,21.9
2022-09-29T08:00:00.202Z,21.9
2022-09-29T08:05:02.311Z,21.9
2022-09-29T08:10:10.474Z,21.9
2022-09-29T08:15:00.112Z,22.0
2022-09-29T08:20:00.204Z,22.0
2022-09-29T08:25:00.114Z,22.0
2022-09-29T08:30:00.143Z,22.0
2022-09-29T08:35:00.110Z,22.0
2022-09-29T08:40:00.158Z,22.0
2022-09-29T08:45:11.236Z,22.0
2022-09-29T08:50:00.132Z,22.0
2022-09-29T08:55:02.611Z,22.0
2022-09-29T09:00:00.244Z,22.0
2022-09-29T09:05:00.137Z,22.0
2022-09-29T09:10:00.129Z,22.0
2022-09-29T09:15:00.127Z,22.0
2022-09-29T09:20:00.157Z,22.0
2022-09-29T09:25:00.134Z,22.0
2022-09-29T09:30:00.145Z,22.0
2022-09-29T09:35:10.796Z,22.0
2022-09-29T09:40:00.166Z,22.0
2022-09-29T09:45:00.101Z,22.1
2022-09-29T09:50:00.210Z,22.1
2022-09-29T09:55:00.115Z,22.1
2022-09-29T10:00:00.182Z,22.1
2022-09-29T10:05:00.114Z,22.2
2022-09-29T10:10:00.126Z,22.1
2022-09-29T10:15:00.110Z,22.2
2022-09-29T10:20:00.189Z,22.2
2022-09-29T10:25:00.094Z,22.2
2022-09-29T10:30:00.187Z,22.2
2022-09-29T10:35:00.119Z,22.2
2022-09-29T10:40:00.156Z,22.3
2022-09-29T10:45:00.130Z,22.2
2022-09-29T10:50:00.178Z,22.2
2022-09-29T10:55:00.105Z,22.3
2022-09-29T11:00:00.211Z,22.3
2022-09-29T11:05:00.129Z,22.3
2022-09-29T11:10:00.161Z,22.3
2022-09-29T11:15:00.113Z,22.3
2022-09-29T11:20:00.222Z,22.3
2022-09-29T11:25:00.121Z,22.3
2022-09-29T11:30:00.155Z,22.4
2022-09-29T11:35:00.130Z,22.3
2022-09-29T11:40:00.167Z,22.4
2022-09-29T11:45:00.110Z,22.3
2022-09-29T11:50:00.194Z,22.4
2022-09-29T11:55:00.142Z,22.4
2022-09-29T12:00:00.361Z,22.4
2022-09-29T12:05:00.118Z,22.4
2022-09-29T12:10:04.209Z,22.4
2022-09-29T12:15:00.106Z,22.4
2022-09-29T12:20:00.174Z,22.4
2022-09-29T12:25:00.092Z,22.4
2022-09-29T12:30:00.152Z,22.4
2022-09-29T12:35:00.138Z,22.4
2022-09-29T12:45:00.122Z,22.4
2022-09-29T12:50:00.165Z,22.4
2022-09-29T12:55:00.122Z,22.4
2022-09-29T13:00:00.180Z,22.4
2022-09-29T13:05:00.145Z,22.3
2022-09-29T13:10:00.144Z,22.3
2022-09-29T13:15:00.115Z,22.2
2022-09-29T13:20:01.826Z,22.2
2022-09-29T13:25:00.100Z,22.1
2022-09-29T13:30:00.153Z,22.1
2022-09-29T13:35:00.142Z,22.1
2022-09-29T13:40:02.506Z,22.1
2022-09-29T13:45:00.115Z,22.1
2022-09-29T13:50:00.171Z,22.1
2022-09-29T13:55:00.136Z,22.1
2022-09-29T14:00:00.173Z,22.0
2022-09-29T14:05:00.125Z,22.0
2022-09-29T14:10:00.283Z,22.0
2022-09-29T14:15:01.470Z,22.0
2022-09-29T14:20:00.195Z,22.0
2022-09-29T14:25:00.124Z,22.0
2022-09-29T14:30:00.170Z,22.0
2022-09-29T14:35:00.144Z,22.1
2022-09-29T14:40:02.236Z,22.1
2022-09-29T14:45:00.119Z,22.2
2022-09-29T14:50:00.160Z,22.2
2022-09-29T14:55:00.178Z,22.2
2022-09-29T15:00:00.181Z,22.2
2022-09-29T15:05:00.167Z,22.3
2022-09-29T15:10:00.203Z,22.3
2022-09-29T15:15:00.159Z,22.3
2022-09-29T15:20:00.197Z,22.3
2022-09-29T15:25:00.124Z,22.3
2022-09-29T15:30:00.164Z,22.3
2022-09-29T15:35:00.126Z,22.4
2022-09-29T15:40:00.156Z,22.3
2022-09-29T15:45:00.122Z,22.4
2022-09-29T15:50:00.148Z,22.4
2022-09-29T15:55:00.127Z,22.4
2022-09-29T16:00:00.195Z,22.5
2022-09-29T16:05:00.102Z,22.5
2022-09-29T16:10:00.157Z,22.5
2022-09-29T16:15:00.145Z,22.5
2022-09-29T16:20:00.165Z,22.5
2022-09-29T16:25:00.113Z,22.5
2022-09-29T16:30:00.185Z,22.5
2022-09-29T16:35:00.084Z,22.5
2022-09-29T16:40:00.190Z,22.5
2022-09-29T16:45:01.034Z,22.5
2022-09-29T16:50:00.136Z,22.5
2022-09-29T16:55:00.127Z,22.6
2022-09-29T17:00:00.208Z,22.6
2022-09-29T17:05:00.091Z,22.5
2022-09-29T17:10:00.181Z,22.5
2022-09-29T17:15:00.104Z,22.6
2022-09-29T17:20:00.178Z,22.5
2022-09-29T17:25:00.127Z,22.5
2022-09-29T17:30:00.160Z,22.5
2022-09-29T17:35:00.134Z,22.5
2022-09-29T17:40:00.125Z,22.5
2022-09-29T17:45:00.115Z,22.5
2022-09-29T17:50:00.139Z,22.5
2022-09-29T17:55:00.079Z,22.5
2022-09-29T18:00:02.023Z,22.5
2022-09-29T18:05:00.097Z,22.5
2022-09-29T18:10:00.160Z,22.4
2022-09-29T18:15:00.095Z,22.4
2022-09-29T18:20:00.186Z,22.4
2022-09-29T18:25:01.547Z,22.4
2022-09-29T18:30:00.108Z,22.4
2022-09-29T18:35:00.144Z,22.4
2022-09-29T18:40:00.159Z,22.4
2022-09-29T18:45:00.141Z,22.4
2022-09-29T18:50:00.162Z,22.4
2022-09-29T18:55:00.116Z,22.4
2022-09-29T19:00:00.163Z,22.4
2022-09-29T19:05:00.099Z,22.4
2022-09-29T19:10:00.156Z,22.5
2022-09-29T19:15:00.265Z,22.5
2022-09-29T19:20:00.247Z,22.5
2022-09-29T19:25:00.090Z,22.5
2022-09-29T19:30:03.129Z,22.5
2022-09-29T19:35:01.213Z,22.5
2022-09-29T19:40:00.207Z,22.5
2022-09-29T19:45:00.100Z,22.5
2022-09-29T19:50:00.174Z,22.5
2022-09-29T19:55:00.139Z,22.5
2022-09-29T20:00:00.148Z,22.5
2022-09-29T20:05:01.020Z,22.5
2022-09-29T20:10:00.122Z,22.5
2022-09-29T20:15:01.212Z,22.5
2022-09-29T20:20:00.157Z,22.5
2022-09-29T20:25:00.099Z,22.5
2022-09-29T20:30:00.139Z,22.5
2022-09-29T20:35:00.106Z,22.5
2022-09-29T20:40:02.405Z,22.5
2022-09-29T20:45:00.083Z,22.5
2022-09-29T20:50:00.186Z,22.5
2022-09-29T20:55:01.247Z,22.5
2022-09-29T21:00:00.171Z,22.5
2022-09-29T21:05:00.153Z,22.5
2022-09-29T21:10:00.155Z,22.5
2022-09-29T21:15:00.075Z,22.5
2022-09-29T21:20:00.145Z,22.5
2022-09-29T21:25:00.120Z,22.5
2022-09-29T21:30:00.152Z,22.5
2022-09-29T21:35:00.104Z,22.5
2022-09-29T21:40:00.179Z,22.5
2022-09-29T21:45:00.125Z,22.5
2022-09-29T21:50:00.138Z,22.5
2022-09-29T21:55:00.122Z,22.5
2022-09-29T22:00:00.162Z,22.5
2022-09-29T22:05:00.096Z,22.5
2022-09-29T22:10:00.188Z,22.5
2022-09-29T22:15:00.105Z,22.5
2022-09-29T22:20:00.148Z,22.5
2022-09-29T22:25:00.131Z,22.5
2022-09-29T22:30:00.135Z,22.5
2022-09-29T22:35:00.113Z,22.5
2022-09-29T22:40:00.178Z,22.5
2022-09-29T22:45:00.106Z,22.5
2022-09-29T22:50:00.147Z,22.5
2022-09-29T22:55:00.125Z,22.5
2022-09-29T23:00:00.158Z,22.5
2022-09-29T23:05:00.101Z,22.5
2022-09-29T23:10:00.155Z,22.5
2022-09-29T23:15:00.094Z,22.5
2022-09-29T23:20:00.155Z,22.5
2022-09-29T23:25:00.147Z,22.5
2022-09-29T23:30:00.142Z,22.5
2022-09-29T23:35:00.094Z,22.5
2022-09-29T23:40:00.185Z,22.5
2022-09-29T23:45:00.111Z,22.5
2022-09-29T23:50:00.146Z,22.5
2022-09-29T23:55:00.130Z,22.5
